sensor_id;sensor_type;location;lat;lon;timestamp;P1;durP1;ratioP1;P2;durP2;ratioP2
7571;SDS011;3827;49.928;8.548;2023-04-24T00:01:00;1.83;;;1.13;;
7571;SDS011;3827;49.928;8.548;2023-04-24T00:03:28;1.42;;;1.30;;
7571;SDS011;3827;49.928;8.548;2023-04-24T00:05:56;1.30;;;1.20;;
7571;SDS011;3827;49.928;8.548;2023-04-24T00:08:24;1.20;;;1.10;;
7571;SDS011;3827;49.928;8.548;2023-04-24T00:10:50;2.97;;;1.40;;
7571;SDS011;3827;49.928;8.548;2023-04-24T00:13:18;1.50;;;1.40;;
7571;SDS011;3827;49.928;8.548;2023-04-24T00:15:44;1.40;;;1.23;;
7571;SDS011;3827;49.928;8.548;2023-04-24T00:18:11;1.33;;;1.23;;
7571;SDS011;3827;49.928;8.548;2023-04-24T00:20:38;1.52;;;1.30;;
7571;SDS011;3827;49.928;8.548;2023-04-24T00:23:07;1.55;;;1.20;;
7571;SDS011;3827;49.928;8.548;2023-04-24T00:25:34;1.48;;;1.38;;
7571;SDS011;3827;49.928;8.548;2023-04-24T00:28:00;1.23;;;1.13;;
7571;SDS011;3827;49.928;8.548;2023-04-24T00:30:27;3.05;;;1.40;;
7571;SDS011;3827;49.928;8.548;2023-04-24T00:32:54;2.83;;;1.40;;
7571;SDS011;3827;49.928;8.548;2023-04-24T00:35:21;1.57;;;1.13;;
7571;SDS011;3827;49.928;8.548;2023-04-24T00:37:48;1.30;;;1.13;;
7571;SDS011;3827;49.928;8.548;2023-04-24T00:40:16;1.42;;;1.10;;
7571;SDS011;3827;49.928;8.548;2023-04-24T00:42:43;1.30;;;1.10;;
7571;SDS011;3827;49.928;8.548;2023-04-24T00:45:10;1.58;;;1.00;;
7571;SDS011;3827;49.928;8.548;2023-04-24T00:47:37;1.23;;;1.00;;
7571;SDS011;3827;49.928;8.548;2023-04-24T00:50:05;1.67;;;1.17;;
7571;SDS011;3827;49.928;8.548;2023-04-24T00:52:33;1.38;;;1.20;;
7571;SDS011;3827;49.928;8.548;2023-04-24T00:55:00;2.75;;;1.30;;
7571;SDS011;3827;49.928;8.548;2023-04-24T00:57:30;1.17;;;1.08;;
7571;SDS011;3827;49.928;8.548;2023-04-24T00:59:57;2.60;;;1.23;;
7571;SDS011;3827;49.928;8.548;2023-04-24T01:02:24;2.85;;;1.15;;
7571;SDS011;3827;49.928;8.548;2023-04-24T01:04:51;1.52;;;1.00;;
7571;SDS011;3827;49.928;8.548;2023-04-24T01:07:19;1.75;;;1.00;;
7571;SDS011;3827;49.928;8.548;2023-04-24T01:09:46;1.40;;;1.10;;
7571;SDS011;3827;49.928;8.548;2023-04-24T01:12:16;1.52;;;1.10;;
7571;SDS011;3827;49.928;8.548;2023-04-24T01:14:44;1.75;;;1.20;;
7571;SDS011;3827;49.928;8.548;2023-04-24T01:17:11;1.48;;;1.05;;
7571;SDS011;3827;49.928;8.548;2023-04-24T01:19:38;2.03;;;1.23;;
7571;SDS011;3827;49.928;8.548;2023-04-24T01:22:11;1.55;;;1.10;;
7571;SDS011;3827;49.928;8.548;2023-04-24T01:24:38;1.60;;;1.10;;
7571;SDS011;3827;49.928;8.548;2023-04-24T01:27:06;1.77;;;1.30;;
7571;SDS011;3827;49.928;8.548;2023-04-24T01:29:34;1.58;;;1.30;;
7571;SDS011;3827;49.928;8.548;2023-04-24T01:32:01;2.05;;;1.20;;
7571;SDS011;3827;49.928;8.548;2023-04-24T01:34:29;2.20;;;1.25;;
7571;SDS011;3827;49.928;8.548;2023-04-24T01:36:56;2.40;;;1.10;;
7571;SDS011;3827;49.928;8.548;2023-04-24T01:39:25;2.08;;;1.10;;
7571;SDS011;3827;49.928;8.548;2023-04-24T01:41:53;1.55;;;1.05;;
7571;SDS011;3827;49.928;8.548;2023-04-24T01:44:21;1.50;;;1.00;;
7571;SDS011;3827;49.928;8.548;2023-04-24T01:46:48;1.40;;;1.20;;
7571;SDS011;3827;49.928;8.548;2023-04-24T01:49:15;1.63;;;1.10;;
7571;SDS011;3827;49.928;8.548;2023-04-24T01:51:42;1.33;;;1.10;;
7571;SDS011;3827;49.928;8.548;2023-04-24T01:54:09;1.55;;;1.00;;
7571;SDS011;3827;49.928;8.548;2023-04-24T01:56:37;1.95;;;1.20;;
7571;SDS011;3827;49.928;8.548;2023-04-24T01:59:07;1.30;;;1.20;;
7571;SDS011;3827;49.928;8.548;2023-04-24T02:01:36;1.33;;;0.88;;
7571;SDS011;3827;49.928;8.548;2023-04-24T02:04:03;1.90;;;1.23;;
7571;SDS011;3827;49.928;8.548;2023-04-24T02:06:31;2.08;;;1.20;;
7571;SDS011;3827;49.928;8.548;2023-04-24T02:08:58;1.07;;;0.97;;
7571;SDS011;3827;49.928;8.548;2023-04-24T02:11:24;1.23;;;1.00;;
7571;SDS011;3827;49.928;8.548;2023-04-24T02:13:53;1.80;;;1.10;;
7571;SDS011;3827;49.928;8.548;2023-04-24T02:16:20;1.83;;;1.05;;
7571;SDS011;3827;49.928;8.548;2023-04-24T02:18:46;2.58;;;1.30;;
7571;SDS011;3827;49.928;8.548;2023-04-24T02:21:13;1.98;;;1.10;;
7571;SDS011;3827;49.928;8.548;2023-04-24T02:23:40;2.05;;;1.10;;
7571;SDS011;3827;49.928;8.548;2023-04-24T02:26:07;2.28;;;1.10;;
7571;SDS011;3827;49.928;8.548;2023-04-24T02:28:34;1.60;;;1.17;;
7571;SDS011;3827;49.928;8.548;2023-04-24T02:31:02;2.80;;;1.02;;
7571;SDS011;3827;49.928;8.548;2023-04-24T02:33:29;2.03;;;1.10;;
7571;SDS011;3827;49.928;8.548;2023-04-24T02:35:55;2.67;;;1.30;;
7571;SDS011;3827;49.928;8.548;2023-04-24T02:38:22;2.22;;;1.15;;
7571;SDS011;3827;49.928;8.548;2023-04-24T02:40:49;1.50;;;1.00;;
7571;SDS011;3827;49.928;8.548;2023-04-24T02:43:16;1.40;;;0.90;;
7571;SDS011;3827;49.928;8.548;2023-04-24T02:45:42;2.10;;;0.95;;
7571;SDS011;3827;49.928;8.548;2023-04-24T02:48:10;1.60;;;1.00;;
7571;SDS011;3827;49.928;8.548;2023-04-24T02:50:37;2.35;;;1.17;;
7571;SDS011;3827;49.928;8.548;2023-04-24T02:53:04;1.63;;;1.00;;
7571;SDS011;3827;49.928;8.548;2023-04-24T02:55:31;1.58;;;1.10;;
7571;SDS011;3827;49.928;8.548;2023-04-24T02:57:58;1.80;;;1.00;;
7571;SDS011;3827;49.928;8.548;2023-04-24T03:00:25;2.92;;;1.08;;
7571;SDS011;3827;49.928;8.548;2023-04-24T03:02:51;1.20;;;0.90;;
7571;SDS011;3827;49.928;8.548;2023-04-24T03:05:19;2.30;;;1.00;;
7571;SDS011;3827;49.928;8.548;2023-04-24T03:07:46;3.00;;;1.00;;
7571;SDS011;3827;49.928;8.548;2023-04-24T03:10:13;1.88;;;0.90;;
7571;SDS011;3827;49.928;8.548;2023-04-24T03:12:40;1.58;;;0.95;;
7571;SDS011;3827;49.928;8.548;2023-04-24T03:15:07;1.85;;;1.00;;
7571;SDS011;3827;49.928;8.548;2023-04-24T03:17:34;3.03;;;1.08;;
7571;SDS011;3827;49.928;8.548;2023-04-24T03:20:02;2.10;;;1.30;;
7571;SDS011;3827;49.928;8.548;2023-04-24T03:22:31;2.45;;;1.30;;
7571;SDS011;3827;49.928;8.548;2023-04-24T03:24:58;1.67;;;1.20;;
7571;SDS011;3827;49.928;8.548;2023-04-24T03:27:25;1.65;;;1.08;;
7571;SDS011;3827;49.928;8.548;2023-04-24T03:29:52;2.20;;;1.00;;
7571;SDS011;3827;49.928;8.548;2023-04-24T03:32:20;1.60;;;1.15;;
7571;SDS011;3827;49.928;8.548;2023-04-24T03:34:47;1.80;;;1.10;;
7571;SDS011;3827;49.928;8.548;2023-04-24T03:37:14;1.30;;;1.20;;
7571;SDS011;3827;49.928;8.548;2023-04-24T03:39:43;1.43;;;1.13;;
7571;SDS011;3827;49.928;8.548;2023-04-24T03:42:10;1.20;;;1.08;;
7571;SDS011;3827;49.928;8.548;2023-04-24T03:44:36;2.80;;;1.30;;
7571;SDS011;3827;49.928;8.548;2023-04-24T03:47:03;1.10;;;1.00;;
7571;SDS011;3827;49.928;8.548;2023-04-24T03:49:30;1.92;;;1.13;;
7571;SDS011;3827;49.928;8.548;2023-04-24T03:51:57;1.73;;;1.13;;
7571;SDS011;3827;49.928;8.548;2023-04-24T03:54:23;2.03;;;1.10;;
7571;SDS011;3827;49.928;8.548;2023-04-24T03:56:52;1.70;;;1.20;;
7571;SDS011;3827;49.928;8.548;2023-04-24T03:59:18;1.20;;;1.10;;
7571;SDS011;3827;49.928;8.548;2023-04-24T04:01:45;1.13;;;1.02;;
7571;SDS011;3827;49.928;8.548;2023-04-24T04:04:12;1.30;;;1.20;;
7571;SDS011;3827;49.928;8.548;2023-04-24T04:06:39;1.50;;;1.10;;
7571;SDS011;3827;49.928;8.548;2023-04-24T04:09:06;1.02;;;1.02;;
7571;SDS011;3827;49.928;8.548;2023-04-24T04:11:33;1.85;;;1.20;;
7571;SDS011;3827;49.928;8.548;2023-04-24T04:14:02;1.45;;;1.30;;
7571;SDS011;3827;49.928;8.548;2023-04-24T04:16:30;1.40;;;1.20;;
7571;SDS011;3827;49.928;8.548;2023-04-24T04:18:57;1.10;;;1.10;;
7571;SDS011;3827;49.928;8.548;2023-04-24T04:21:24;1.17;;;1.10;;
7571;SDS011;3827;49.928;8.548;2023-04-24T04:23:52;1.20;;;1.20;;
7571;SDS011;3827;49.928;8.548;2023-04-24T04:26:18;1.38;;;1.27;;
7571;SDS011;3827;49.928;8.548;2023-04-24T04:28:46;1.40;;;1.30;;
7571;SDS011;3827;49.928;8.548;2023-04-24T04:31:15;2.13;;;1.30;;
7571;SDS011;3827;49.928;8.548;2023-04-24T04:33:42;1.38;;;1.27;;
7571;SDS011;3827;49.928;8.548;2023-04-24T04:36:08;1.42;;;1.33;;
7571;SDS011;3827;49.928;8.548;2023-04-24T04:38:35;1.48;;;1.35;;
7571;SDS011;3827;49.928;8.548;2023-04-24T04:41:02;1.70;;;1.60;;
7571;SDS011;3827;49.928;8.548;2023-04-24T04:43:29;1.50;;;1.40;;
7571;SDS011;3827;49.928;8.548;2023-04-24T04:45:57;1.60;;;1.50;;
7571;SDS011;3827;49.928;8.548;2023-04-24T04:48:27;1.90;;;1.63;;
7571;SDS011;3827;49.928;8.548;2023-04-24T04:50:53;1.58;;;1.50;;
7571;SDS011;3827;49.928;8.548;2023-04-24T04:53:20;2.40;;;1.73;;
7571;SDS011;3827;49.928;8.548;2023-04-24T04:55:47;1.97;;;1.87;;
7571;SDS011;3827;49.928;8.548;2023-04-24T04:58:14;2.00;;;1.90;;
7571;SDS011;3827;49.928;8.548;2023-04-24T05:00:41;2.50;;;2.30;;
7571;SDS011;3827;49.928;8.548;2023-04-24T05:03:07;2.35;;;2.15;;
7571;SDS011;3827;49.928;8.548;2023-04-24T05:05:36;2.00;;;1.90;;
7571;SDS011;3827;49.928;8.548;2023-04-24T05:08:05;2.20;;;2.00;;
7571;SDS011;3827;49.928;8.548;2023-04-24T05:10:32;2.20;;;2.10;;
7571;SDS011;3827;49.928;8.548;2023-04-24T05:12:59;2.05;;;1.85;;
7571;SDS011;3827;49.928;8.548;2023-04-24T05:15:26;2.05;;;1.95;;
7571;SDS011;3827;49.928;8.548;2023-04-24T05:17:53;2.08;;;1.92;;
7571;SDS011;3827;49.928;8.548;2023-04-24T05:20:20;2.10;;;1.90;;
7571;SDS011;3827;49.928;8.548;2023-04-24T05:22:48;2.30;;;1.75;;
7571;SDS011;3827;49.928;8.548;2023-04-24T05:25:53;1.90;;;1.80;;
7571;SDS011;3827;49.928;8.548;2023-04-24T05:28:20;1.80;;;1.70;;
7571;SDS011;3827;49.928;8.548;2023-04-24T05:30:47;1.90;;;1.80;;
7571;SDS011;3827;49.928;8.548;2023-04-24T05:33:14;1.85;;;1.70;;
7571;SDS011;3827;49.928;8.548;2023-04-24T05:35:40;1.70;;;1.60;;
7571;SDS011;3827;49.928;8.548;2023-04-24T05:38:10;1.70;;;1.60;;
7571;SDS011;3827;49.928;8.548;2023-04-24T05:40:38;2.13;;;1.92;;
7571;SDS011;3827;49.928;8.548;2023-04-24T05:43:06;1.80;;;1.70;;
7571;SDS011;3827;49.928;8.548;2023-04-24T05:45:33;1.90;;;1.80;;
7571;SDS011;3827;49.928;8.548;2023-04-24T05:48:01;1.70;;;1.60;;
7571;SDS011;3827;49.928;8.548;2023-04-24T05:50:27;2.08;;;1.50;;
7571;SDS011;3827;49.928;8.548;2023-04-24T05:52:54;1.80;;;1.70;;
7571;SDS011;3827;49.928;8.548;2023-04-24T05:55:23;2.13;;;1.80;;
7571;SDS011;3827;49.928;8.548;2023-04-24T05:57:50;2.72;;;2.00;;
7571;SDS011;3827;49.928;8.548;2023-04-24T06:00:18;2.85;;;2.65;;
7571;SDS011;3827;49.928;8.548;2023-04-24T06:02:45;3.55;;;2.90;;
7571;SDS011;3827;49.928;8.548;2023-04-24T06:05:12;3.25;;;2.95;;
7571;SDS011;3827;49.928;8.548;2023-04-24T06:07:39;3.20;;;2.83;;
7571;SDS011;3827;49.928;8.548;2023-04-24T06:10:07;2.80;;;2.60;;
7571;SDS011;3827;49.928;8.548;2023-04-24T06:12:34;2.80;;;2.60;;
7571;SDS011;3827;49.928;8.548;2023-04-24T06:15:01;3.60;;;3.40;;
7571;SDS011;3827;49.928;8.548;2023-04-24T06:17:29;3.00;;;2.80;;
7571;SDS011;3827;49.928;8.548;2023-04-24T06:19:57;2.85;;;2.55;;
7571;SDS011;3827;49.928;8.548;2023-04-24T06:22:23;2.88;;;2.63;;
7571;SDS011;3827;49.928;8.548;2023-04-24T06:24:50;3.17;;;2.83;;
7571;SDS011;3827;49.928;8.548;2023-04-24T06:27:17;7.13;;;6.57;;
7571;SDS011;3827;49.928;8.548;2023-04-24T06:29:44;4.65;;;3.35;;
7571;SDS011;3827;49.928;8.548;2023-04-24T06:32:11;3.42;;;3.13;;
7571;SDS011;3827;49.928;8.548;2023-04-24T06:34:39;3.60;;;3.30;;
7571;SDS011;3827;49.928;8.548;2023-04-24T06:37:07;2.90;;;2.70;;
7571;SDS011;3827;49.928;8.548;2023-04-24T06:39:34;3.38;;;3.08;;
7571;SDS011;3827;49.928;8.548;2023-04-24T06:42:00;3.80;;;3.50;;
7571;SDS011;3827;49.928;8.548;2023-04-24T06:44:27;3.30;;;3.10;;
7571;SDS011;3827;49.928;8.548;2023-04-24T06:46:54;3.60;;;3.20;;
7571;SDS011;3827;49.928;8.548;2023-04-24T06:49:21;3.30;;;2.90;;
7571;SDS011;3827;49.928;8.548;2023-04-24T06:51:49;4.25;;;3.55;;
7571;SDS011;3827;49.928;8.548;2023-04-24T06:54:16;3.00;;;2.70;;
7571;SDS011;3827;49.928;8.548;2023-04-24T06:56:42;3.20;;;3.00;;
7571;SDS011;3827;49.928;8.548;2023-04-24T06:59:11;3.03;;;2.83;;
7571;SDS011;3827;49.928;8.548;2023-04-24T07:01:38;2.63;;;2.42;;
7571;SDS011;3827;49.928;8.548;2023-04-24T07:04:04;3.03;;;2.60;;
7571;SDS011;3827;49.928;8.548;2023-04-24T07:06:31;3.13;;;2.83;;
7571;SDS011;3827;49.928;8.548;2023-04-24T07:08:59;3.13;;;2.88;;
7571;SDS011;3827;49.928;8.548;2023-04-24T07:11:26;2.90;;;2.70;;
7571;SDS011;3827;49.928;8.548;2023-04-24T07:13:54;3.00;;;2.80;;
7571;SDS011;3827;49.928;8.548;2023-04-24T07:16:21;3.22;;;2.92;;
7571;SDS011;3827;49.928;8.548;2023-04-24T07:18:48;4.03;;;3.72;;
7571;SDS011;3827;49.928;8.548;2023-04-24T07:21:14;3.53;;;3.22;;
7571;SDS011;3827;49.928;8.548;2023-04-24T07:23:41;3.43;;;3.23;;
7571;SDS011;3827;49.928;8.548;2023-04-24T07:26:09;2.60;;;2.40;;
7571;SDS011;3827;49.928;8.548;2023-04-24T07:28:36;2.88;;;2.67;;
7571;SDS011;3827;49.928;8.548;2023-04-24T07:31:03;3.53;;;2.65;;
7571;SDS011;3827;49.928;8.548;2023-04-24T07:33:30;2.17;;;1.98;;
7571;SDS011;3827;49.928;8.548;2023-04-24T07:35:57;2.60;;;2.20;;
7571;SDS011;3827;49.928;8.548;2023-04-24T07:38:24;4.50;;;2.67;;
7571;SDS011;3827;49.928;8.548;2023-04-24T07:40:51;2.15;;;2.00;;
7571;SDS011;3827;49.928;8.548;2023-04-24T07:43:19;1.87;;;1.73;;
7571;SDS011;3827;49.928;8.548;2023-04-24T07:45:46;2.17;;;1.98;;
7571;SDS011;3827;49.928;8.548;2023-04-24T07:48:13;2.42;;;2.00;;
7571;SDS011;3827;49.928;8.548;2023-04-24T07:50:41;1.80;;;1.70;;
7571;SDS011;3827;49.928;8.548;2023-04-24T07:53:08;2.05;;;1.77;;
7571;SDS011;3827;49.928;8.548;2023-04-24T07:55:35;2.70;;;1.80;;
7571;SDS011;3827;49.928;8.548;2023-04-24T07:58:01;1.70;;;1.60;;
7571;SDS011;3827;49.928;8.548;2023-04-24T08:00:30;1.77;;;1.58;;
7571;SDS011;3827;49.928;8.548;2023-04-24T08:02:57;1.55;;;1.40;;
7571;SDS011;3827;49.928;8.548;2023-04-24T08:05:24;2.20;;;1.50;;
7571;SDS011;3827;49.928;8.548;2023-04-24T08:07:52;1.45;;;1.35;;
7571;SDS011;3827;49.928;8.548;2023-04-24T08:10:19;1.80;;;1.60;;
7571;SDS011;3827;49.928;8.548;2023-04-24T08:12:47;2.70;;;2.00;;
7571;SDS011;3827;49.928;8.548;2023-04-24T08:15:14;1.65;;;1.52;;
7571;SDS011;3827;49.928;8.548;2023-04-24T08:17:42;2.47;;;1.50;;
7571;SDS011;3827;49.928;8.548;2023-04-24T08:20:10;1.73;;;1.63;;
7571;SDS011;3827;49.928;8.548;2023-04-24T08:22:38;2.67;;;1.77;;
7571;SDS011;3827;49.928;8.548;2023-04-24T08:25:05;2.70;;;1.80;;
7571;SDS011;3827;49.928;8.548;2023-04-24T08:27:33;2.50;;;1.65;;
7571;SDS011;3827;49.928;8.548;2023-04-24T08:30:01;2.40;;;1.92;;
7571;SDS011;3827;49.928;8.548;2023-04-24T08:32:28;2.00;;;1.63;;
7571;SDS011;3827;49.928;8.548;2023-04-24T08:34:57;1.90;;;1.65;;
7571;SDS011;3827;49.928;8.548;2023-04-24T08:37:25;1.90;;;1.80;;
7571;SDS011;3827;49.928;8.548;2023-04-24T08:39:52;2.67;;;1.98;;
7571;SDS011;3827;49.928;8.548;2023-04-24T08:42:19;2.30;;;1.55;;
7571;SDS011;3827;49.928;8.548;2023-04-24T08:44:48;1.55;;;1.45;;
7571;SDS011;3827;49.928;8.548;2023-04-24T08:47:15;1.40;;;1.30;;
7571;SDS011;3827;49.928;8.548;2023-04-24T08:49:42;2.00;;;1.73;;
7571;SDS011;3827;49.928;8.548;2023-04-24T08:52:11;3.10;;;1.70;;
7571;SDS011;3827;49.928;8.548;2023-04-24T08:54:39;2.65;;;1.75;;
7571;SDS011;3827;49.928;8.548;2023-04-24T08:57:08;1.80;;;1.70;;
7571;SDS011;3827;49.928;8.548;2023-04-24T08:59:36;1.95;;;1.85;;
7571;SDS011;3827;49.928;8.548;2023-04-24T09:02:04;2.20;;;2.03;;
7571;SDS011;3827;49.928;8.548;2023-04-24T09:04:32;2.13;;;1.88;;
7571;SDS011;3827;49.928;8.548;2023-04-24T09:07:01;1.80;;;1.70;;
7571;SDS011;3827;49.928;8.548;2023-04-24T09:09:30;1.88;;;1.77;;
7571;SDS011;3827;49.928;8.548;2023-04-24T09:11:58;2.45;;;1.80;;
7571;SDS011;3827;49.928;8.548;2023-04-24T09:14:26;2.88;;;1.80;;
7571;SDS011;3827;49.928;8.548;2023-04-24T09:16:53;1.73;;;1.63;;
7571;SDS011;3827;49.928;8.548;2023-04-24T09:19:20;2.20;;;1.70;;
7571;SDS011;3827;49.928;8.548;2023-04-24T09:21:47;2.25;;;1.80;;
7571;SDS011;3827;49.928;8.548;2023-04-24T09:24:15;1.70;;;1.60;;
7571;SDS011;3827;49.928;8.548;2023-04-24T09:26:46;3.50;;;1.67;;
7571;SDS011;3827;49.928;8.548;2023-04-24T09:29:16;1.60;;;1.48;;
7571;SDS011;3827;49.928;8.548;2023-04-24T09:31:45;1.92;;;1.80;;
7571;SDS011;3827;49.928;8.548;2023-04-24T09:34:12;2.10;;;1.90;;
7571;SDS011;3827;49.928;8.548;2023-04-24T09:36:40;1.70;;;1.60;;
7571;SDS011;3827;49.928;8.548;2023-04-24T09:39:08;1.52;;;1.10;;
7571;SDS011;3827;49.928;8.548;2023-04-24T09:41:43;1.50;;;1.40;;
7571;SDS011;3827;49.928;8.548;2023-04-24T09:44:12;1.50;;;1.40;;
7571;SDS011;3827;49.928;8.548;2023-04-24T09:46:41;1.30;;;1.30;;
7571;SDS011;3827;49.928;8.548;2023-04-24T09:49:08;1.60;;;1.50;;
7571;SDS011;3827;49.928;8.548;2023-04-24T09:51:37;1.30;;;1.20;;
7571;SDS011;3827;49.928;8.548;2023-04-24T09:54:11;1.25;;;1.10;;
7571;SDS011;3827;49.928;8.548;2023-04-24T09:56:42;1.10;;;1.00;;
7571;SDS011;3827;49.928;8.548;2023-04-24T09:59:10;1.60;;;1.10;;
7571;SDS011;3827;49.928;8.548;2023-04-24T10:01:39;1.65;;;1.10;;
7571;SDS011;3827;49.928;8.548;2023-04-24T10:04:15;1.83;;;1.10;;
7571;SDS011;3827;49.928;8.548;2023-04-24T10:06:43;1.30;;;1.10;;
7571;SDS011;3827;49.928;8.548;2023-04-24T10:09:10;1.80;;;1.10;;
7571;SDS011;3827;49.928;8.548;2023-04-24T10:11:39;1.40;;;1.30;;
7571;SDS011;3827;49.928;8.548;2023-04-24T10:14:09;2.08;;;1.30;;
7571;SDS011;3827;49.928;8.548;2023-04-24T10:16:37;1.70;;;1.10;;
7571;SDS011;3827;49.928;8.548;2023-04-24T10:19:06;1.42;;;0.95;;
7571;SDS011;3827;49.928;8.548;2023-04-24T10:21:34;2.55;;;1.15;;
7571;SDS011;3827;49.928;8.548;2023-04-24T10:24:02;2.22;;;1.30;;
7571;SDS011;3827;49.928;8.548;2023-04-24T10:26:32;1.40;;;1.23;;
7571;SDS011;3827;49.928;8.548;2023-04-24T10:29:00;1.43;;;1.20;;
7571;SDS011;3827;49.928;8.548;2023-04-24T10:31:29;1.38;;;1.27;;
7571;SDS011;3827;49.928;8.548;2023-04-24T10:33:59;1.58;;;1.40;;
7571;SDS011;3827;49.928;8.548;2023-04-24T10:36:27;1.48;;;1.30;;
7571;SDS011;3827;49.928;8.548;2023-04-24T10:38:57;2.05;;;1.52;;
7571;SDS011;3827;49.928;8.548;2023-04-24T10:41:27;2.13;;;1.30;;
7571;SDS011;3827;49.928;8.548;2023-04-24T10:44:05;1.88;;;1.52;;
7571;SDS011;3827;49.928;8.548;2023-04-24T10:46:32;1.50;;;1.40;;
7571;SDS011;3827;49.928;8.548;2023-04-24T10:49:01;1.50;;;1.30;;
7571;SDS011;3827;49.928;8.548;2023-04-24T10:51:43;1.58;;;1.40;;
7571;SDS011;3827;49.928;8.548;2023-04-24T10:54:24;1.70;;;1.30;;
7571;SDS011;3827;49.928;8.548;2023-04-24T10:56:52;1.50;;;1.40;;
7571;SDS011;3827;49.928;8.548;2023-04-24T10:59:39;1.57;;;1.47;;
7571;SDS011;3827;49.928;8.548;2023-04-24T11:02:06;2.00;;;1.90;;
7571;SDS011;3827;49.928;8.548;2023-04-24T11:04:36;2.60;;;2.30;;
7571;SDS011;3827;49.928;8.548;2023-04-24T11:07:03;2.53;;;2.30;;
7571;SDS011;3827;49.928;8.548;2023-04-24T11:09:30;4.20;;;3.80;;
7571;SDS011;3827;49.928;8.548;2023-04-24T11:12:04;2.38;;;2.17;;
7571;SDS011;3827;49.928;8.548;2023-04-24T11:17:28;2.95;;;2.75;;
7571;SDS011;3827;49.928;8.548;2023-04-24T11:20:01;3.00;;;2.70;;
7571;SDS011;3827;49.928;8.548;2023-04-24T11:22:30;1.80;;;1.70;;
7571;SDS011;3827;49.928;8.548;2023-04-24T11:25:00;2.15;;;1.95;;
7571;SDS011;3827;49.928;8.548;2023-04-24T11:27:29;2.15;;;2.05;;
7571;SDS011;3827;49.928;8.548;2023-04-24T11:30:01;1.90;;;1.80;;
7571;SDS011;3827;49.928;8.548;2023-04-24T11:32:30;1.80;;;1.70;;
7571;SDS011;3827;49.928;8.548;2023-04-24T11:35:05;1.90;;;1.80;;
7571;SDS011;3827;49.928;8.548;2023-04-24T11:37:35;2.07;;;1.77;;
7571;SDS011;3827;49.928;8.548;2023-04-24T11:40:03;1.80;;;1.70;;
7571;SDS011;3827;49.928;8.548;2023-04-24T11:42:33;1.40;;;1.30;;
7571;SDS011;3827;49.928;8.548;2023-04-24T11:45:00;1.23;;;1.15;;
7571;SDS011;3827;49.928;8.548;2023-04-24T11:47:29;2.65;;;1.70;;
7571;SDS011;3827;49.928;8.548;2023-04-24T11:49:56;1.80;;;1.40;;
7571;SDS011;3827;49.928;8.548;2023-04-24T11:52:25;1.70;;;1.60;;
7571;SDS011;3827;49.928;8.548;2023-04-24T11:54:52;1.70;;;1.60;;
7571;SDS011;3827;49.928;8.548;2023-04-24T11:57:19;1.70;;;1.60;;
7571;SDS011;3827;49.928;8.548;2023-04-24T11:59:47;1.73;;;1.63;;
7571;SDS011;3827;49.928;8.548;2023-04-24T12:02:21;1.58;;;1.42;;
7571;SDS011;3827;49.928;8.548;2023-04-24T12:04:48;1.50;;;1.40;;
7571;SDS011;3827;49.928;8.548;2023-04-24T12:07:15;1.33;;;1.23;;
7571;SDS011;3827;49.928;8.548;2023-04-24T12:09:45;1.77;;;1.23;;
7571;SDS011;3827;49.928;8.548;2023-04-24T12:12:12;1.40;;;1.30;;
7571;SDS011;3827;49.928;8.548;2023-04-24T12:14:44;1.75;;;1.40;;
7571;SDS011;3827;49.928;8.548;2023-04-24T12:17:11;1.25;;;1.20;;
7571;SDS011;3827;49.928;8.548;2023-04-24T12:19:44;1.60;;;1.50;;
7571;SDS011;3827;49.928;8.548;2023-04-24T12:22:11;1.75;;;1.65;;
7571;SDS011;3827;49.928;8.548;2023-04-24T12:27:25;2.03;;;1.83;;
7571;SDS011;3827;49.928;8.548;2023-04-24T12:29:53;2.08;;;1.80;;
7571;SDS011;3827;49.928;8.548;2023-04-24T12:32:21;2.30;;;2.00;;
7571;SDS011;3827;49.928;8.548;2023-04-24T12:34:49;3.10;;;2.15;;
7571;SDS011;3827;49.928;8.548;2023-04-24T12:37:16;2.50;;;2.30;;
7571;SDS011;3827;49.928;8.548;2023-04-24T12:39:46;2.35;;;2.17;;
7571;SDS011;3827;49.928;8.548;2023-04-24T12:42:30;3.15;;;2.05;;
7571;SDS011;3827;49.928;8.548;2023-04-24T12:44:58;2.50;;;2.28;;
7571;SDS011;3827;49.928;8.548;2023-04-24T12:47:26;3.10;;;2.50;;
7571;SDS011;3827;49.928;8.548;2023-04-24T12:49:53;3.40;;;2.50;;
7571;SDS011;3827;49.928;8.548;2023-04-24T12:52:21;2.00;;;1.73;;
7571;SDS011;3827;49.928;8.548;2023-04-24T12:54:48;4.00;;;2.20;;
7571;SDS011;3827;49.928;8.548;2023-04-24T12:57:17;2.57;;;2.00;;
7571;SDS011;3827;49.928;8.548;2023-04-24T12:59:44;2.47;;;1.90;;
7571;SDS011;3827;49.928;8.548;2023-04-24T13:02:11;3.33;;;2.00;;
7571;SDS011;3827;49.928;8.548;2023-04-24T13:04:38;2.55;;;2.10;;
7571;SDS011;3827;49.928;8.548;2023-04-24T13:07:05;3.45;;;2.47;;
7571;SDS011;3827;49.928;8.548;2023-04-24T13:09:34;2.87;;;2.47;;
7571;SDS011;3827;49.928;8.548;2023-04-24T13:12:01;2.40;;;2.20;;
7571;SDS011;3827;49.928;8.548;2023-04-24T13:14:31;2.92;;;2.55;;
7571;SDS011;3827;49.928;8.548;2023-04-24T13:16:58;3.50;;;2.40;;
7571;SDS011;3827;49.928;8.548;2023-04-24T13:19:25;2.90;;;2.55;;
7571;SDS011;3827;49.928;8.548;2023-04-24T13:21:53;2.78;;;2.42;;
7571;SDS011;3827;49.928;8.548;2023-04-24T13:24:21;3.25;;;2.38;;
7571;SDS011;3827;49.928;8.548;2023-04-24T13:26:49;2.53;;;2.10;;
7571;SDS011;3827;49.928;8.548;2023-04-24T13:29:16;2.25;;;2.03;;
7571;SDS011;3827;49.928;8.548;2023-04-24T13:31:45;2.53;;;2.00;;
7571;SDS011;3827;49.928;8.548;2023-04-24T13:34:12;3.45;;;2.35;;
7571;SDS011;3827;49.928;8.548;2023-04-24T13:36:39;3.10;;;2.35;;
7571;SDS011;3827;49.928;8.548;2023-04-24T13:39:06;4.82;;;2.50;;
7571;SDS011;3827;49.928;8.548;2023-04-24T13:41:33;4.80;;;2.30;;
7571;SDS011;3827;49.928;8.548;2023-04-24T13:44:01;3.38;;;2.55;;
7571;SDS011;3827;49.928;8.548;2023-04-24T13:46:28;3.85;;;2.15;;
7571;SDS011;3827;49.928;8.548;2023-04-24T13:48:56;2.70;;;2.40;;
7571;SDS011;3827;49.928;8.548;2023-04-24T13:51:25;3.27;;;2.23;;
7571;SDS011;3827;49.928;8.548;2023-04-24T13:53:52;2.65;;;2.20;;
7571;SDS011;3827;49.928;8.548;2023-04-24T13:56:20;2.80;;;2.40;;
7571;SDS011;3827;49.928;8.548;2023-04-24T13:58:47;2.70;;;2.40;;
7571;SDS011;3827;49.928;8.548;2023-04-24T14:01:14;2.57;;;2.33;;
7571;SDS011;3827;49.928;8.548;2023-04-24T14:03:42;3.20;;;2.42;;
7571;SDS011;3827;49.928;8.548;2023-04-24T14:06:10;3.60;;;2.50;;
7571;SDS011;3827;49.928;8.548;2023-04-24T14:08:37;3.20;;;2.63;;
7571;SDS011;3827;49.928;8.548;2023-04-24T14:11:04;2.88;;;2.22;;
7571;SDS011;3827;49.928;8.548;2023-04-24T14:13:31;2.88;;;2.30;;
7571;SDS011;3827;49.928;8.548;2023-04-24T14:15:58;4.45;;;2.30;;
7571;SDS011;3827;49.928;8.548;2023-04-24T14:18:24;2.92;;;2.15;;
7571;SDS011;3827;49.928;8.548;2023-04-24T14:20:51;2.90;;;2.33;;
7571;SDS011;3827;49.928;8.548;2023-04-24T14:23:20;4.40;;;2.20;;
7571;SDS011;3827;49.928;8.548;2023-04-24T14:25:46;3.55;;;2.42;;
7571;SDS011;3827;49.928;8.548;2023-04-24T14:28:16;2.57;;;2.37;;
7571;SDS011;3827;49.928;8.548;2023-04-24T14:30:43;3.13;;;2.33;;
7571;SDS011;3827;49.928;8.548;2023-04-24T14:33:10;2.83;;;2.22;;
7571;SDS011;3827;49.928;8.548;2023-04-24T14:35:38;3.10;;;2.70;;
7571;SDS011;3827;49.928;8.548;2023-04-24T14:38:07;3.13;;;2.20;;
7571;SDS011;3827;49.928;8.548;2023-04-24T14:40:35;3.30;;;2.20;;
7571;SDS011;3827;49.928;8.548;2023-04-24T14:43:02;2.50;;;2.30;;
7571;SDS011;3827;49.928;8.548;2023-04-24T14:45:29;2.65;;;2.30;;
7571;SDS011;3827;49.928;8.548;2023-04-24T14:47:56;3.35;;;2.58;;
7571;SDS011;3827;49.928;8.548;2023-04-24T14:50:23;2.95;;;2.40;;
7571;SDS011;3827;49.928;8.548;2023-04-24T14:52:53;4.45;;;2.80;;
7571;SDS011;3827;49.928;8.548;2023-04-24T14:55:19;2.80;;;2.58;;
7571;SDS011;3827;49.928;8.548;2023-04-24T14:57:48;2.50;;;2.30;;
7571;SDS011;3827;49.928;8.548;2023-04-24T15:00:15;2.67;;;2.30;;
7571;SDS011;3827;49.928;8.548;2023-04-24T15:02:43;2.90;;;2.25;;
7571;SDS011;3827;49.928;8.548;2023-04-24T15:05:10;2.92;;;2.30;;
7571;SDS011;3827;49.928;8.548;2023-04-24T15:07:37;2.30;;;2.10;;
7571;SDS011;3827;49.928;8.548;2023-04-24T15:10:04;2.33;;;2.13;;
7571;SDS011;3827;49.928;8.548;2023-04-24T15:12:32;2.80;;;2.20;;
7571;SDS011;3827;49.928;8.548;2023-04-24T15:15:00;3.00;;;2.20;;
7571;SDS011;3827;49.928;8.548;2023-04-24T15:17:27;2.38;;;2.17;;
7571;SDS011;3827;49.928;8.548;2023-04-24T15:19:54;3.22;;;2.90;;
7571;SDS011;3827;49.928;8.548;2023-04-24T15:22:20;3.70;;;2.60;;
7571;SDS011;3827;49.928;8.548;2023-04-24T15:24:47;2.67;;;2.47;;